createdAt,value
2018-02-01T00:01:28.822Z,74.96
2018-02-01T00:03:57.811Z,74.71
2018-02-01T00:06:26.304Z,74.83
2018-02-01T00:08:55.079Z,75.10
2018-02-01T00:11:23.661Z,74.97
2018-02-01T00:13:52.141Z,74.98
2018-02-01T00:16:20.940Z,75.15
2018-02-01T00:18:49.469Z,75.03
2018-02-01T00:21:17.994Z,75.45
2018-02-01T00:23:46.475Z,75.02
2018-02-01T00:26:15.133Z,74.60
2018-02-01T00:28:43.568Z,74.60
2018-02-01T00:31:11.996Z,74.85
2018-02-01T00:33:40.676Z,74.97
2018-02-01T00:36:09.085Z,75.22
2018-02-01T00:38:37.516Z,75.59
2018-02-01T00:41:06.325Z,75.35
2018-02-01T00:43:34.829Z,75.43
2018-02-01T00:46:03.288Z,75.38
2018-02-01T00:48:31.889Z,75.39
2018-02-01T00:51:00.327Z,75.50
2018-02-01T00:53:28.776Z,75.75
2018-02-01T00:55:57.441Z,75.42
2018-02-01T00:58:25.849Z,75.44
2018-02-01T01:00:54.339Z,75.15
2018-02-01T01:03:23.092Z,75.31
2018-02-01T01:05:51.545Z,75.39
2018-02-01T01:08:20.053Z,75.22
2018-02-01T01:10:48.661Z,75.23
2018-02-01T01:13:17.595Z,74.61
2018-02-01T01:15:46.011Z,74.83
2018-02-01T01:18:14.475Z,74.26
2018-02-01T01:20:42.907Z,74.02
2018-02-01T01:23:11.350Z,74.10
2018-02-01T01:25:39.784Z,74.15
2018-02-01T01:28:08.175Z,74.21
2018-02-01T01:30:36.589Z,74.30
2018-02-01T01:33:05.029Z,74.33
2018-02-01T01:35:33.476Z,74.30
2018-02-01T01:38:01.879Z,74.39
2018-02-01T01:40:30.461Z,74.64
2018-02-01T01:42:58.957Z,74.65
2018-02-01T01:45:27.367Z,74.50
2018-02-01T01:47:55.878Z,74.63
2018-02-01T01:50:24.286Z,74.40
2018-02-01T01:52:52.713Z,74.29
2018-02-01T01:55:21.260Z,74.44
2018-02-01T01:57:50.579Z,74.51
2018-02-01T02:00:19.244Z,74.78
2018-02-01T02:02:47.928Z,74.99
2018-02-01T02:05:16.605Z,74.78
2018-02-01T02:07:45.029Z,74.65
2018-02-01T02:10:13.500Z,74.57
2018-02-01T02:12:41.937Z,74.76
2018-02-01T02:15:10.370Z,74.52
2018-02-01T02:17:39.626Z,74.52
2018-02-01T02:20:08.058Z,74.53
2018-02-01T02:22:36.574Z,74.65
2018-02-01T02:25:05.157Z,74.61
2018-02-01T02:27:33.636Z,74.89
2018-02-01T02:30:02.081Z,74.81
2018-02-01T02:32:30.557Z,74.49
2018-02-01T02:34:59.045Z,74.48
2018-02-01T02:37:27.450Z,74.74
2018-02-01T02:39:56.116Z,74.99
2018-02-01T02:42:24.590Z,74.84
2018-02-01T02:44:53.262Z,74.97
2018-02-01T02:47:21.819Z,74.73
2018-02-01T02:49:50.283Z,74.67
2018-02-01T02:52:18.765Z,74.64
2018-02-01T02:54:47.496Z,74.60
2018-02-01T02:57:15.908Z,74.73
2018-02-01T02:59:44.357Z,74.59
2018-02-01T03:02:13.020Z,74.66
2018-02-01T03:04:41.427Z,75.15
2018-02-01T03:07:10.040Z,74.83
2018-02-01T03:09:38.473Z,74.57
2018-02-01T03:12:06.891Z,74.65
2018-02-01T03:14:35.325Z,74.54
2018-02-01T03:17:03.764Z,74.66
2018-02-01T03:19:32.173Z,74.77
2018-02-01T03:22:00.590Z,74.64
2018-02-01T03:24:29.293Z,74.40
2018-02-01T03:26:57.704Z,74.40
2018-02-01T03:29:26.124Z,74.06
2018-02-01T03:31:54.614Z,74.45
2018-02-01T03:34:23.086Z,74.21
2018-02-01T03:36:51.566Z,74.07
2018-02-01T03:39:20.047Z,74.36
2018-02-01T03:41:48.540Z,74.44
2018-02-01T03:44:16.950Z,74.31
2018-02-01T03:46:45.449Z,74.47
2018-02-01T03:49:13.869Z,74.14
2018-02-01T03:51:42.329Z,73.96
2018-02-01T03:54:10.831Z,74.36
2018-02-01T03:56:39.237Z,74.68
2018-02-01T03:59:07.659Z,74.33
2018-02-01T04:01:36.096Z,74.37
2018-02-01T04:04:04.504Z,74.54
2018-02-01T04:06:32.949Z,74.51
2018-02-01T04:09:01.412Z,74.91
2018-02-01T04:11:29.855Z,74.86
2018-02-01T04:13:58.334Z,74.84
2018-02-01T04:16:26.977Z,74.73
2018-02-01T04:18:55.598Z,74.83
2018-02-01T04:21:24.061Z,74.82
2018-02-01T04:23:52.977Z,74.85
2018-02-01T04:26:21.452Z,74.82
2018-02-01T04:28:49.944Z,74.95
2018-02-01T04:31:18.473Z,75.12
2018-02-01T04:33:46.959Z,75.30
2018-02-01T04:36:15.353Z,75.05
2018-02-01T04:38:43.802Z,74.65
2018-02-01T04:41:12.223Z,74.84
2018-02-01T04:43:40.662Z,74.83
2018-02-01T04:46:09.105Z,74.88
2018-02-01T04:48:37.531Z,74.78
2018-02-01T04:51:06.004Z,74.76
2018-02-01T04:53:34.433Z,74.77
2018-02-01T04:56:02.872Z,74.90
2018-02-01T04:58:31.342Z,74.63
2018-02-01T05:00:59.839Z,74.48
2018-02-01T05:03:28.309Z,74.71
2018-02-01T05:05:56.702Z,74.43
2018-02-01T05:08:25.231Z,74.18
2018-02-01T05:10:53.789Z,74.28
2018-02-01T05:13:22.347Z,74.24
2018-02-01T05:15:51.039Z,74.39
2018-02-01T05:18:19.535Z,74.42
2018-02-01T05:20:48.016Z,74.40
2018-02-01T05:23:16.530Z,74.22
2018-02-01T05:25:44.941Z,74.42
2018-02-01T05:28:13.344Z,74.54
2018-02-01T05:30:41.893Z,74.72
2018-02-01T05:33:10.364Z,74.54
2018-02-01T05:35:38.819Z,74.72
2018-02-01T05:38:07.294Z,74.80
2018-02-01T05:40:35.737Z,75.15
2018-02-01T05:43:04.133Z,74.92
2018-02-01T05:45:32.703Z,74.54
2018-02-01T05:48:01.119Z,74.81
2018-02-01T05:50:29.570Z,74.68
2018-02-01T05:52:58.123Z,74.53
2018-02-01T05:55:26.605Z,74.58
2018-02-01T05:57:55.097Z,74.70
2018-02-01T06:00:24.656Z,74.26
2018-02-01T06:02:53.279Z,73.89
2018-02-01T06:05:21.754Z,73.76
2018-02-01T06:07:50.442Z,73.76
2018-02-01T06:10:18.903Z,73.51
2018-02-01T06:12:47.541Z,73.46
2018-02-01T06:15:16.195Z,73.27
2018-02-01T06:17:45.261Z,73.14
2018-02-01T06:20:14.725Z,73.02
2018-02-01T06:22:43.352Z,72.85
2018-02-01T06:25:11.799Z,72.69
2018-02-01T06:27:40.210Z,72.76
2018-02-01T06:30:08.772Z,72.66
2018-02-01T06:32:37.199Z,72.50
2018-02-01T06:35:05.667Z,72.33
2018-02-01T06:37:35.003Z,72.75
2018-02-01T06:40:03.504Z,72.61
2018-02-01T06:42:31.912Z,72.41
2018-02-01T06:45:00.702Z,72.54
2018-02-01T06:47:29.108Z,72.69
2018-02-01T06:49:57.574Z,72.63
2018-02-01T06:52:26.167Z,73.14
2018-02-01T06:54:54.575Z,72.79
2018-02-01T06:57:23.099Z,72.68
2018-02-01T06:59:51.578Z,72.73
2018-02-01T07:02:20.058Z,72.67
2018-02-01T07:04:49.481Z,72.91
2018-02-01T07:07:18.106Z,72.90
2018-02-01T07:09:46.578Z,72.73
2018-02-01T07:12:15.143Z,73.05
2018-02-01T07:14:43.629Z,73.02
2018-02-01T07:17:12.027Z,72.94
2018-02-01T07:19:40.525Z,73.03
2018-02-01T07:22:09.070Z,73.48
2018-02-01T07:24:37.587Z,73.22
2018-02-01T07:27:06.035Z,73.23
2018-02-01T07:29:34.484Z,73.39
2018-02-01T07:32:03.028Z,73.23
2018-02-01T07:34:31.478Z,73.04
2018-02-01T07:36:59.930Z,72.89
2018-02-01T07:39:28.344Z,72.91
2018-02-01T07:41:57.173Z,72.75
2018-02-01T07:44:25.826Z,72.58
2018-02-01T07:47:00.265Z,73.05
2018-02-01T07:49:28.787Z,72.96
2018-02-01T07:51:57.314Z,73.17
2018-02-01T07:54:25.920Z,72.78
2018-02-01T07:56:54.435Z,73.03
2018-02-01T07:59:22.943Z,73.09
2018-02-01T08:01:51.520Z,72.77
2018-02-01T08:04:20.139Z,72.80
2018-02-01T08:06:48.836Z,72.96
2018-02-01T08:09:17.671Z,72.87
2018-02-01T08:11:46.408Z,72.89
2018-02-01T08:14:14.907Z,72.67
2018-02-01T08:16:43.378Z,72.71
2018-02-01T08:19:11.825Z,72.90
2018-02-01T08:21:41.358Z,72.78
2018-02-01T08:24:09.796Z,73.08
2018-02-01T08:26:38.240Z,72.98
2018-02-01T08:29:06.662Z,72.75
2018-02-01T08:31:35.114Z,72.51
2018-02-01T08:34:03.631Z,72.50
2018-02-01T08:36:32.141Z,72.62
2018-02-01T08:39:00.692Z,72.48
2018-02-01T08:41:29.174Z,72.25
2018-02-01T08:43:57.719Z,72.17
2018-02-01T08:46:26.270Z,72.09
2018-02-01T08:48:54.875Z,71.81
2018-02-01T08:51:23.367Z,72.27
2018-02-01T08:53:52.085Z,71.87
2018-02-01T08:56:21.087Z,72.13
2018-02-01T08:58:49.667Z,72.46
2018-02-01T09:01:18.324Z,72.09
2018-02-01T09:03:46.797Z,71.65
2018-02-01T09:06:15.260Z,71.59
2018-02-01T09:08:43.689Z,71.49
2018-02-01T09:11:12.201Z,71.52
2018-02-01T09:13:40.628Z,71.40
2018-02-01T09:16:09.056Z,70.94
2018-02-01T09:18:37.533Z,70.80
2018-02-01T09:21:05.949Z,70.36
2018-02-01T09:23:34.471Z,70.53
2018-02-01T09:26:02.979Z,70.09
2018-02-01T09:28:31.405Z,69.73
2018-02-01T09:31:00.449Z,69.98
2018-02-01T09:33:29.265Z,69.89
2018-02-01T09:35:57.754Z,69.52
2018-02-01T09:38:26.276Z,69.37
2018-02-01T09:40:54.776Z,69.50
2018-02-01T09:43:23.260Z,69.41
2018-02-01T09:45:51.836Z,69.30
2018-02-01T09:48:20.372Z,69.11
2018-02-01T09:50:48.952Z,69.21
2018-02-01T09:53:18.921Z,69.33
2018-02-01T09:55:47.729Z,69.16
2018-02-01T09:58:16.233Z,68.99
2018-02-01T10:00:44.695Z,69.31
2018-02-01T10:03:13.505Z,69.42
2018-02-01T10:05:41.939Z,69.46
2018-02-01T10:08:10.343Z,69.12
2018-02-01T10:10:39.713Z,69.12
2018-02-01T10:13:08.173Z,69.10
2018-02-01T10:15:36.694Z,69.17
2018-02-01T10:18:05.310Z,69.02
2018-02-01T10:20:33.714Z,69.24
2018-02-01T10:23:02.129Z,68.73
2018-02-01T10:25:30.641Z,68.96
2018-02-01T10:27:59.080Z,68.94
2018-02-01T10:30:27.588Z,68.77
2018-02-01T10:32:56.141Z,69.15
2018-02-01T10:35:24.656Z,68.71
2018-02-01T10:37:53.517Z,69.06
2018-02-01T10:40:22.305Z,69.00
2018-02-01T10:42:51.053Z,68.74
2018-02-01T10:45:20.047Z,68.83
2018-02-01T10:47:49.086Z,68.86
2018-02-01T10:50:17.797Z,69.20
2018-02-01T10:52:46.277Z,68.88
2018-02-01T10:55:14.822Z,68.55
2018-02-01T10:57:44.340Z,68.08
2018-02-01T11:00:12.786Z,68.01
2018-02-01T11:02:41.244Z,67.62
2018-02-01T11:05:09.705Z,66.83
2018-02-01T11:07:38.104Z,66.48
2018-02-01T11:10:06.740Z,66.09
2018-02-01T11:12:35.228Z,65.93
2018-02-01T11:15:03.697Z,65.62
2018-02-01T11:17:32.360Z,66.35
2018-02-01T11:20:00.930Z,66.40
2018-02-01T11:22:29.424Z,66.23
2018-02-01T11:24:57.929Z,66.75
2018-02-01T11:27:26.455Z,66.54
2018-02-01T11:29:55.064Z,66.05
2018-02-01T11:32:23.998Z,66.54
2018-02-01T11:34:52.611Z,66.74
2018-02-01T11:37:21.056Z,66.43
2018-02-01T11:39:49.609Z,66.28
2018-02-01T11:42:18.854Z,66.25
2018-02-01T11:44:47.369Z,66.19
2018-02-01T11:47:15.820Z,66.33
2018-02-01T11:49:44.212Z,66.44
2018-02-01T11:52:12.624Z,66.22
2018-02-01T11:54:41.069Z,66.22
2018-02-01T11:57:09.488Z,66.05
2018-02-01T11:59:37.988Z,65.98
2018-02-01T12:02:06.420Z,65.86
2018-02-01T12:04:34.952Z,65.92
2018-02-01T12:07:03.388Z,66.56
2018-02-01T12:09:31.811Z,66.79
2018-02-01T12:12:00.231Z,66.36
2018-02-01T12:14:28.665Z,66.33
2018-02-01T12:16:58.110Z,66.48
2018-02-01T12:19:26.555Z,66.67
2018-02-01T12:21:55.038Z,66.92
2018-02-01T12:24:23.848Z,66.81
2018-02-01T12:26:52.316Z,66.85
2018-02-01T12:29:20.746Z,66.90
2018-02-01T12:31:49.274Z,67.26
2018-02-01T12:34:17.983Z,67.76
2018-02-01T12:36:46.437Z,67.56
2018-02-01T12:39:14.880Z,67.76
2018-02-01T12:41:43.289Z,67.97
2018-02-01T12:44:11.709Z,68.12
2018-02-01T12:46:40.157Z,67.95
2018-02-01T12:49:08.585Z,68.36
2018-02-01T12:51:37.007Z,68.51
2018-02-01T12:54:05.751Z,68.81
2018-02-01T12:56:34.180Z,68.26
2018-02-01T12:59:02.637Z,67.89
2018-02-01T13:01:31.358Z,68.14
2018-02-01T13:04:00.741Z,67.89
2018-02-01T13:06:29.198Z,67.38
2018-02-01T13:08:57.722Z,67.70
2018-02-01T13:11:26.196Z,67.66
2018-02-01T13:13:54.837Z,67.46
2018-02-01T13:16:23.407Z,66.85
2018-02-01T13:18:51.943Z,66.56
2018-02-01T13:21:20.907Z,66.10
2018-02-01T13:23:49.452Z,66.15
2018-02-01T13:26:18.029Z,66.06
2018-02-01T13:28:46.468Z,66.40
2018-02-01T13:31:14.967Z,66.46
2018-02-01T13:33:44.299Z,65.67
2018-02-01T13:36:12.877Z,65.12
2018-02-01T13:38:41.523Z,64.96
2018-02-01T13:41:10.355Z,65.04
2018-02-01T13:43:38.882Z,64.66
2018-02-01T13:46:07.481Z,64.72
2018-02-01T13:48:36.780Z,64.58
2018-02-01T13:51:05.219Z,64.41
2018-02-01T13:53:33.653Z,64.71
2018-02-01T13:56:02.223Z,64.55
2018-02-01T13:58:30.662Z,64.61
2018-02-01T14:00:59.878Z,64.61
2018-02-01T14:03:28.389Z,64.61
2018-02-01T14:05:56.865Z,64.36
2018-02-01T14:08:25.353Z,64.63
2018-02-01T14:10:53.964Z,64.69
2018-02-01T14:13:22.545Z,64.59
2018-02-01T14:15:52.152Z,64.50
2018-02-01T14:18:20.606Z,64.84
2018-02-01T14:20:49.190Z,65.07
2018-02-01T14:23:18.798Z,64.87
2018-02-01T14:25:47.229Z,64.90
2018-02-01T14:28:15.713Z,65.11
2018-02-01T14:30:44.168Z,64.54
2018-02-01T14:33:12.578Z,64.58
2018-02-01T14:35:40.978Z,65.16
2018-02-01T14:38:09.430Z,64.66
2018-02-01T14:40:37.857Z,64.56
2018-02-01T14:43:06.322Z,64.33
2018-02-01T14:45:34.842Z,64.51
2018-02-01T14:48:03.295Z,64.72
2018-02-01T14:50:31.699Z,64.43
2018-02-01T14:53:00.138Z,64.89
2018-02-01T14:55:28.586Z,64.51
2018-02-01T14:57:57.220Z,64.66
2018-02-01T15:00:25.710Z,64.39
2018-02-01T15:02:54.181Z,64.51
2018-02-01T15:05:22.777Z,64.19
2018-02-01T15:07:51.509Z,64.55
2018-02-01T15:10:20.188Z,64.81
2018-02-01T15:12:49.208Z,64.81
2018-02-01T15:15:17.825Z,64.50
2018-02-01T15:17:46.225Z,64.78
2018-02-01T15:20:14.657Z,64.62
2018-02-01T15:22:43.497Z,64.42
2018-02-01T15:25:11.917Z,64.66
2018-02-01T15:27:40.774Z,64.34
2018-02-01T15:30:09.272Z,64.64
2018-02-01T15:32:37.692Z,64.76
2018-02-01T15:35:06.128Z,64.69
2018-02-01T15:37:34.614Z,64.91
2018-02-01T15:40:03.061Z,64.82
2018-02-01T15:42:31.521Z,65.26
2018-02-01T15:45:00.182Z,65.09
2018-02-01T15:47:28.791Z,65.09
2018-02-01T15:49:57.376Z,65.78
2018-02-01T15:52:26.031Z,65.66
2018-02-01T15:54:54.995Z,65.45
2018-02-01T15:57:23.561Z,65.30
2018-02-01T15:59:52.631Z,65.18
2018-02-01T16:02:21.324Z,64.98
2018-02-01T16:04:50.056Z,65.26
2018-02-01T16:07:19.246Z,65.08
2018-02-01T16:09:47.781Z,65.17
2018-02-01T16:12:16.270Z,64.92
2018-02-01T16:14:44.761Z,65.01
2018-02-01T16:17:13.219Z,65.31
2018-02-01T16:19:41.755Z,64.91
2018-02-01T16:22:10.315Z,64.74
2018-02-01T16:24:38.734Z,64.88
2018-02-01T16:27:08.693Z,65.17
2018-02-01T16:29:37.376Z,65.42
2018-02-01T16:32:05.832Z,65.31
2018-02-01T16:34:34.285Z,65.34
2018-02-01T16:37:02.793Z,65.30
2018-02-01T16:39:31.215Z,65.59
2018-02-01T16:41:59.983Z,65.77
2018-02-01T16:44:28.476Z,65.92
2018-02-01T16:46:56.976Z,66.11
2018-02-01T16:49:25.588Z,65.90
2018-02-01T16:51:54.195Z,65.88
2018-02-01T16:54:23.280Z,65.93
2018-02-01T16:56:52.566Z,65.93
2018-02-01T16:59:21.297Z,66.01
2018-02-01T17:01:50.005Z,66.28
2018-02-01T17:04:18.566Z,66.36
2018-02-01T17:06:47.076Z,66.09
2018-02-01T17:09:15.529Z,66.24
2018-02-01T17:11:43.945Z,66.10
2018-02-01T17:14:12.452Z,66.23
2018-02-01T17:16:40.921Z,66.13
2018-02-01T17:19:09.314Z,66.39
2018-02-01T17:21:37.755Z,66.43
2018-02-01T17:24:06.424Z,66.45
2018-02-01T17:26:34.900Z,66.81
2018-02-01T17:29:03.383Z,66.81
2018-02-01T17:31:31.818Z,66.93
2018-02-01T17:34:00.280Z,66.97
2018-02-01T17:36:29.028Z,67.15
2018-02-01T17:38:58.330Z,67.36
2018-02-01T17:41:27.143Z,67.40
2018-02-01T17:43:55.942Z,67.70
2018-02-01T17:46:24.546Z,67.72
2018-02-01T17:48:53.171Z,67.79
2018-02-01T17:51:21.954Z,67.95
2018-02-01T17:53:50.834Z,68.09
2018-02-01T17:56:19.595Z,68.03
2018-02-01T17:58:48.468Z,67.99
2018-02-01T18:01:16.914Z,68.10
2018-02-01T18:03:45.360Z,68.33
2018-02-01T18:06:13.816Z,68.33
2018-02-01T18:08:42.262Z,68.54
2018-02-01T18:11:10.755Z,68.67
2018-02-01T18:13:39.570Z,68.40
2018-02-01T18:16:08.006Z,68.38
2018-02-01T18:18:36.697Z,68.39
2018-02-01T18:21:05.134Z,68.16
2018-02-01T18:23:33.597Z,68.22
2018-02-01T18:26:03.074Z,68.37
2018-02-01T18:28:31.846Z,68.57
2018-02-01T18:31:00.411Z,68.50
2018-02-01T18:33:28.837Z,68.55
2018-02-01T18:35:57.434Z,68.75
2018-02-01T18:38:26.014Z,68.63
2018-02-01T18:40:54.577Z,68.54
2018-02-01T18:43:23.211Z,68.65
2018-02-01T18:45:51.847Z,68.50
2018-02-01T18:48:20.406Z,68.62
2018-02-01T20:12:46.801Z,71.41
2018-02-01T20:15:15.249Z,70.71
2018-02-01T20:17:43.672Z,70.45
2018-02-01T20:20:12.125Z,70.59
2018-02-01T20:22:40.552Z,70.43
2018-02-01T20:25:08.988Z,70.27
2018-02-01T20:27:37.434Z,69.99
2018-02-01T20:30:06.681Z,70.13
2018-02-01T20:32:35.146Z,69.96
2018-02-01T20:35:03.606Z,70.12
2018-02-01T20:37:32.005Z,70.35
2018-02-01T20:40:00.484Z,70.20
2018-02-01T20:42:28.956Z,70.17
2018-02-01T20:44:57.427Z,70.29
2018-02-01T20:47:25.978Z,70.33
2018-02-01T20:49:54.680Z,70.29
2018-02-01T20:52:23.499Z,70.19
2018-02-01T20:54:51.989Z,69.98
2018-02-01T20:57:20.775Z,70.15
2018-02-01T20:59:53.179Z,70.03
2018-02-01T21:02:22.108Z,70.06
2018-02-01T21:04:50.902Z,69.86
2018-02-01T21:07:28.235Z,69.76
2018-02-01T21:09:56.883Z,69.77
2018-02-01T21:12:25.391Z,69.76
2018-02-01T21:14:54.178Z,69.72
2018-02-01T21:17:22.793Z,69.78
2018-02-01T21:19:51.376Z,69.95
2018-02-01T21:22:20.247Z,70.09
2018-02-01T21:24:49.928Z,70.21
2018-02-01T21:27:18.540Z,70.03
2018-02-01T21:29:47.192Z,70.30
2018-02-01T21:32:16.809Z,70.46
2018-02-01T21:34:45.264Z,70.28
2018-02-01T21:37:13.670Z,70.31
2018-02-01T21:39:42.501Z,71.07
2018-02-01T21:42:10.927Z,71.16
2018-02-01T21:44:39.456Z,71.44
2018-02-01T21:47:07.911Z,71.83
2018-02-01T21:49:36.329Z,72.28
2018-02-01T21:52:04.786Z,72.69
2018-02-01T21:54:33.272Z,73.01
2018-02-01T21:57:02.043Z,73.25
2018-02-01T22:02:06.764Z,74.60
2018-02-01T22:04:35.185Z,75.05
2018-02-01T22:07:03.688Z,75.32
2018-02-01T22:09:32.427Z,75.77
2018-02-01T22:12:00.930Z,76.10
2018-02-01T22:14:29.583Z,76.33
2018-02-01T22:16:58.041Z,76.77
2018-02-01T22:19:26.627Z,77.02
2018-02-01T22:21:55.237Z,77.14
2018-02-01T22:24:24.039Z,77.42
2018-02-01T22:26:52.603Z,77.56
2018-02-01T22:29:21.281Z,77.55
2018-02-01T22:31:49.877Z,77.41
2018-02-01T22:34:18.456Z,77.49
2018-02-01T22:36:46.909Z,77.53
2018-02-01T22:39:15.365Z,77.48
2018-02-01T22:41:43.797Z,77.59
2018-02-01T22:44:12.621Z,77.57
2018-02-01T22:46:41.177Z,77.66
2018-02-01T22:49:09.617Z,77.75
2018-02-01T22:51:38.064Z,77.83
2018-02-01T22:54:06.840Z,77.74
2018-02-01T22:56:35.355Z,77.63
2018-02-01T22:59:03.779Z,77.40
2018-02-01T23:01:32.330Z,77.54
2018-02-01T23:04:00.840Z,77.49
2018-02-01T23:06:29.418Z,77.39
2018-02-01T23:08:58.248Z,77.31
2018-02-01T23:11:26.826Z,77.52
2018-02-01T23:13:55.585Z,77.48
2018-02-01T23:16:24.366Z,77.44
2018-02-01T23:18:53.042Z,77.79
2018-02-01T23:21:21.570Z,78.05
2018-02-01T23:23:50.379Z,77.84
2018-02-01T23:26:18.888Z,77.76
2018-02-01T23:28:47.424Z,77.85
2018-02-01T23:31:15.894Z,77.91
2018-02-01T23:33:44.505Z,77.72
2018-02-01T23:36:15.774Z,77.61
2018-02-01T23:38:51.376Z,77.33
2018-02-01T23:41:20.149Z,77.22
2018-02-01T23:43:48.638Z,77.15
2018-02-01T23:46:17.496Z,77.21
2018-02-01T23:48:46.296Z,77.31
2018-02-01T23:51:14.738Z,77.54
2018-02-01T23:53:43.321Z,77.63
2018-02-01T23:56:11.821Z,77.68
2018-02-01T23:58:40.495Z,77.53
